Terminal Aerodrome Forecast
Issued by NWS Jackson, MS

Home | Current Version | Previous Version | Text Only | Print | Product List | Glossary On
Versions: 1 2 3 4 5 6 7 8 9 10 11 12 13 14 15 16 17 18 19 20 21 22
000
FTUS44 KJAN 051700
TAFMEI
TAF
KMEI 051720Z 0518/0618 35015G24KT 4SM -FZRAPL BR BKN013 OVC020
     FM052200 36018G25KT P6SM BKN015 OVC020
     FM060100 36013KT P6SM BKN025
     FM060700 36009KT P6SM SKC=

USA.gov is the U.S. government's official web portal to all federal, state and local government web resources and services.